createdAt,value
2018-06-20T00:01:18.790Z,11.33
2018-06-20T00:03:21.274Z,9.77
2018-06-20T00:05:24.035Z,12.53
2018-06-20T00:07:26.626Z,11.27
2018-06-20T00:09:28.987Z,13.87
2018-06-20T00:11:31.527Z,9.80
2018-06-20T00:13:34.083Z,11.57
2018-06-20T00:15:36.749Z,7.50
2018-06-20T00:17:39.128Z,11.17
2018-06-20T00:19:41.610Z,10.20
2018-06-20T00:21:44.067Z,7.60
2018-06-20T00:23:46.656Z,11.13
2018-06-20T00:25:49.637Z,9.07
2018-06-20T00:27:52.277Z,7.33
2018-06-20T00:29:54.810Z,12.17
2018-06-20T00:31:58.086Z,11.57
2018-06-20T00:34:01.581Z,6.23
2018-06-20T00:36:04.379Z,12.57
2018-06-20T00:38:06.923Z,11.40
2018-06-20T00:40:09.342Z,7.03
2018-06-20T00:42:11.736Z,10.43
2018-06-20T00:44:14.081Z,9.43
2018-06-20T00:46:16.581Z,6.80
2018-06-20T00:48:18.991Z,6.93
2018-06-20T00:50:21.719Z,8.23
2018-06-20T00:52:24.054Z,7.80
2018-06-20T00:54:26.724Z,10.20
2018-06-20T00:56:29.865Z,10.13
2018-06-20T00:58:32.210Z,9.60
2018-06-20T01:00:34.565Z,11.60
2018-06-20T01:02:36.911Z,7.67
2018-06-20T01:04:39.205Z,8.27
2018-06-20T01:06:42.611Z,11.20
2018-06-20T01:08:48.936Z,10.20
2018-06-20T01:10:51.278Z,11.60
2018-06-20T01:12:53.589Z,6.97
2018-06-20T01:14:56.040Z,10.50
2018-06-20T01:16:58.449Z,10.20
2018-06-20T01:19:00.859Z,10.80
2018-06-20T01:21:03.471Z,9.43
2018-06-20T01:23:07.087Z,8.40
2018-06-20T01:25:10.753Z,9.60
2018-06-20T01:27:14.273Z,9.10
2018-06-20T01:29:16.724Z,8.07
2018-06-20T01:31:19.092Z,10.77
2018-06-20T01:33:21.795Z,8.47
2018-06-20T01:35:24.086Z,9.00
2018-06-20T01:37:26.411Z,10.90
2018-06-20T01:39:28.800Z,8.77
2018-06-20T01:41:31.263Z,7.43
2018-06-20T01:43:33.551Z,8.87
2018-06-20T01:45:36.793Z,8.10
2018-06-20T01:47:39.350Z,10.20
2018-06-20T01:49:41.753Z,15.13
2018-06-20T01:51:44.178Z,6.63
2018-06-20T01:53:46.586Z,10.27
2018-06-20T01:55:48.958Z,10.63
2018-06-20T01:57:51.578Z,9.07
2018-06-20T01:59:54.026Z,9.50
2018-06-20T02:01:56.344Z,8.27
2018-06-20T02:03:58.785Z,10.30
2018-06-20T02:06:01.176Z,9.27
2018-06-20T02:08:03.825Z,9.90
2018-06-20T02:10:06.401Z,7.80
2018-06-20T02:12:08.828Z,11.97
2018-06-20T02:14:11.279Z,15.23
2018-06-20T02:16:13.655Z,6.90
2018-06-20T02:18:16.048Z,8.60
2018-06-20T02:20:18.740Z,7.83
2018-06-20T02:22:21.312Z,8.43
2018-06-20T02:24:24.073Z,8.87
2018-06-20T02:26:26.411Z,8.07
2018-06-20T02:28:28.824Z,10.20
2018-06-20T02:30:31.154Z,8.90
2018-06-20T02:32:33.823Z,8.70
2018-06-20T02:34:36.287Z,10.67
2018-06-20T02:36:39.115Z,6.97
2018-06-20T02:38:41.424Z,8.30
2018-06-20T02:40:43.890Z,9.83
2018-06-20T02:42:46.302Z,8.37
2018-06-20T02:44:48.680Z,11.60
2018-06-20T02:46:51.355Z,10.07
2018-06-20T02:48:53.780Z,11.80
2018-06-20T02:50:56.198Z,12.23
2018-06-20T02:52:58.895Z,9.70
2018-06-20T02:55:01.246Z,15.57
2018-06-20T02:57:03.808Z,8.60
2018-06-20T02:59:06.402Z,10.73
2018-06-20T03:01:09.069Z,10.70
2018-06-20T03:03:11.459Z,9.43
2018-06-20T03:05:13.907Z,9.60
2018-06-20T03:07:16.482Z,11.07
2018-06-20T03:09:24.396Z,8.83
2018-06-20T03:11:26.810Z,11.07
2018-06-20T03:13:29.218Z,9.40
2018-06-20T03:15:31.574Z,10.17
2018-06-20T03:17:33.952Z,10.57
2018-06-20T03:19:36.662Z,8.77
2018-06-20T03:21:39.157Z,9.30
2018-06-20T03:23:41.600Z,12.27
2018-06-20T03:25:44.080Z,10.43
2018-06-20T03:27:46.515Z,10.63
2018-06-20T03:29:51.175Z,13.30
2018-06-20T03:31:53.594Z,10.27
2018-06-20T03:33:55.865Z,8.93
2018-06-20T03:35:58.162Z,9.03
2018-06-20T03:38:00.724Z,9.00
2018-06-20T03:40:03.200Z,11.17
2018-06-20T03:42:05.640Z,8.67
2018-06-20T03:44:08.830Z,9.10
2018-06-20T03:46:11.211Z,7.93
2018-06-20T03:48:13.582Z,10.13
2018-06-20T03:50:15.925Z,8.83
2018-06-20T03:52:18.295Z,11.20
2018-06-20T03:54:20.858Z,10.57
2018-06-20T03:56:23.901Z,9.10
2018-06-20T03:58:26.450Z,10.00
2018-06-20T04:00:28.845Z,9.70
2018-06-20T04:02:31.274Z,11.30
2018-06-20T04:04:33.738Z,7.97
2018-06-20T04:06:36.185Z,10.27
2018-06-20T04:08:38.578Z,9.03
2018-06-20T04:10:41.080Z,10.67
2018-06-20T04:12:43.801Z,8.90
2018-06-20T04:14:46.244Z,8.70
2018-06-20T04:16:48.652Z,8.37
2018-06-20T04:18:51.020Z,14.33
2018-06-20T04:20:53.396Z,10.13
2018-06-20T04:22:56.704Z,8.90
2018-06-20T04:24:59.123Z,11.93
2018-06-20T04:27:02.485Z,7.60
2018-06-20T04:29:04.950Z,9.67
2018-06-20T04:31:08.366Z,10.57
2018-06-20T04:33:10.786Z,8.77
2018-06-20T04:35:13.147Z,10.37
2018-06-20T04:37:15.554Z,10.50
2018-06-20T04:39:18.135Z,9.53
2018-06-20T04:41:20.554Z,9.80
2018-06-20T04:43:23.542Z,9.00
2018-06-20T04:45:25.879Z,10.03
2018-06-20T04:47:28.411Z,9.20
2018-06-20T04:49:30.786Z,10.37
2018-06-20T04:51:33.248Z,7.27
2018-06-20T04:53:35.643Z,7.77
2018-06-20T04:55:38.137Z,8.87
2018-06-20T04:57:40.510Z,8.43
2018-06-20T04:59:42.951Z,10.23
2018-06-20T05:01:45.425Z,9.43
2018-06-20T05:03:47.813Z,9.97
2018-06-20T05:05:50.978Z,11.27
2018-06-20T05:07:53.473Z,8.63
2018-06-20T05:09:55.858Z,11.37
2018-06-20T05:11:58.231Z,8.97
2018-06-20T05:14:00.922Z,11.37
2018-06-20T05:16:03.882Z,10.70
2018-06-20T05:18:06.363Z,8.13
2018-06-20T05:20:08.871Z,10.97
2018-06-20T05:22:11.300Z,9.67
2018-06-20T05:24:13.709Z,8.63
2018-06-20T05:26:16.105Z,8.23
2018-06-20T05:28:19.259Z,9.47
2018-06-20T05:30:21.644Z,8.90
2018-06-20T05:32:24.785Z,8.33
2018-06-20T05:34:27.517Z,13.00
2018-06-20T05:36:30.107Z,8.93
2018-06-20T05:38:32.605Z,10.13
2018-06-20T05:40:34.938Z,8.57
2018-06-20T05:42:37.354Z,12.10
2018-06-20T05:44:40.917Z,11.90
2018-06-20T05:46:44.088Z,11.47
2018-06-20T05:48:47.212Z,9.00
2018-06-20T05:50:50.802Z,11.70
2018-06-20T05:52:53.150Z,7.80
2018-06-20T05:54:55.551Z,13.70
2018-06-20T05:56:57.951Z,9.50
2018-06-20T05:59:00.373Z,12.03
2018-06-20T06:01:02.780Z,12.23
2018-06-20T06:03:05.136Z,9.17
2018-06-20T06:05:07.765Z,9.23
2018-06-20T06:07:10.248Z,11.60
2018-06-20T06:09:12.777Z,11.50
2018-06-20T06:11:15.159Z,10.77
2018-06-20T06:13:17.546Z,10.40
2018-06-20T06:15:19.995Z,8.57
2018-06-20T06:17:22.383Z,14.77
2018-06-20T06:19:25.056Z,12.00
2018-06-20T06:21:27.501Z,10.07
2018-06-20T06:23:30.247Z,15.17
2018-06-20T06:25:32.868Z,17.93
2018-06-20T06:27:35.279Z,17.20
2018-06-20T06:29:38.787Z,14.23
2018-06-20T06:31:41.291Z,14.80
2018-06-20T06:33:43.747Z,17.97
2018-06-20T06:35:46.413Z,16.90
2018-06-20T06:37:48.913Z,16.00
2018-06-20T06:39:51.839Z,19.13
2018-06-20T06:41:54.217Z,16.40
2018-06-20T06:43:59.280Z,14.63
2018-06-20T06:46:01.637Z,18.90
2018-06-20T06:48:04.163Z,16.47
2018-06-20T06:50:08.624Z,20.20
2018-06-20T06:52:10.955Z,20.97
2018-06-20T06:54:13.325Z,20.27
2018-06-20T06:56:15.942Z,19.90
2018-06-20T06:58:20.252Z,21.50
2018-06-20T07:00:22.916Z,24.87
2018-06-20T07:02:25.611Z,20.90
2018-06-20T07:04:28.356Z,22.87
2018-06-20T07:06:30.824Z,19.93
2018-06-20T07:08:34.482Z,19.73
2018-06-20T07:10:37.133Z,25.60
2018-06-20T07:13:08.198Z,20.93
2018-06-20T07:15:10.589Z,22.23
2018-06-20T07:17:14.627Z,19.30
2018-06-20T07:19:17.844Z,19.47
2018-06-20T07:21:21.351Z,18.10
2018-06-20T07:23:25.579Z,18.77
2018-06-20T07:25:30.032Z,16.43
2018-06-20T07:27:32.590Z,20.10
2018-06-20T07:29:35.350Z,22.70
2018-06-20T07:31:37.786Z,21.53
2018-06-20T07:33:43.980Z,18.63
2018-06-20T07:35:46.543Z,17.50
2018-06-20T07:37:50.892Z,17.40
2018-06-20T07:39:53.563Z,17.17
2018-06-20T07:41:57.642Z,15.73
2018-06-20T07:44:02.799Z,17.20
2018-06-20T07:46:05.324Z,18.90
2018-06-20T07:48:09.179Z,19.37
2018-06-20T07:50:11.645Z,16.83
2018-06-20T07:52:14.070Z,17.50
2018-06-20T07:54:18.110Z,18.27
2018-06-20T07:56:23.051Z,17.17
2018-06-20T07:58:31.139Z,18.43
2018-06-20T08:00:39.296Z,16.97
2018-06-20T08:02:59.288Z,16.97
2018-06-20T08:05:07.475Z,15.83
2018-06-20T08:07:15.739Z,20.23
2018-06-20T08:09:23.938Z,19.67
2018-06-20T08:11:32.240Z,17.03
2018-06-20T08:13:40.433Z,17.63
2018-06-20T08:15:49.101Z,14.43
2018-06-20T08:17:57.193Z,14.23
2018-06-20T08:20:01.628Z,16.60
2018-06-20T08:22:04.902Z,14.97
2018-06-20T08:24:09.667Z,18.53
2018-06-20T08:26:12.475Z,16.40
2018-06-20T08:28:16.506Z,16.30
2018-06-20T08:30:19.195Z,16.30
2018-06-20T08:32:22.430Z,15.87
2018-06-20T08:34:29.458Z,19.10
2018-06-20T08:36:32.585Z,15.73
2018-06-20T08:38:35.023Z,17.90
2018-06-20T08:40:39.730Z,15.60
2018-06-20T08:42:44.452Z,16.07
2018-06-20T08:44:49.811Z,15.43
2018-06-20T08:46:57.908Z,15.23
2018-06-20T08:49:02.291Z,14.40
2018-06-20T08:51:04.961Z,12.80
2018-06-20T08:53:11.255Z,15.50
2018-06-20T08:55:13.742Z,11.97
2018-06-20T08:57:19.875Z,14.97
2018-06-20T08:59:37.192Z,14.93
2018-06-20T09:01:47.753Z,15.37
2018-06-20T09:03:57.455Z,15.00
2018-06-20T09:06:05.679Z,12.27
2018-06-20T09:08:14.548Z,14.20
2018-06-20T09:10:22.715Z,16.73
2018-06-20T09:12:30.822Z,13.17
2018-06-20T09:14:40.057Z,12.97
2018-06-20T09:16:48.335Z,13.90
2018-06-20T09:18:56.538Z,13.30
2018-06-20T09:20:59.360Z,15.60
2018-06-20T09:23:02.178Z,15.27
2018-06-20T09:25:10.120Z,15.40
2018-06-20T09:27:12.890Z,15.63
2018-06-20T09:29:16.278Z,16.03
2018-06-20T09:31:18.930Z,17.83
2018-06-20T09:33:26.926Z,17.20
2018-06-20T09:35:29.474Z,22.30
2018-06-20T09:37:35.115Z,17.87
2018-06-20T09:39:38.700Z,18.27
2018-06-20T09:41:42.460Z,20.67
2018-06-20T09:43:48.934Z,18.97
2018-06-20T09:45:55.674Z,17.93
2018-06-20T09:47:59.431Z,19.67
2018-06-20T09:50:07.968Z,18.40
2018-06-20T09:52:12.066Z,18.70
2018-06-20T09:54:15.661Z,19.83
2018-06-20T09:56:18.063Z,18.97
2018-06-20T09:58:21.826Z,17.60
2018-06-20T10:00:30.279Z,21.37
2018-06-20T10:02:38.415Z,25.20
2018-06-20T10:04:46.565Z,20.10
2018-06-20T10:06:54.840Z,20.63
2018-06-20T10:09:03.079Z,20.30
2018-06-20T10:11:11.316Z,23.10
2018-06-20T10:13:15.940Z,20.10
2018-06-20T10:15:19.614Z,19.70
2018-06-20T10:17:24.022Z,21.17
2018-06-20T10:19:27.749Z,19.87
2018-06-20T10:21:30.354Z,17.73
2018-06-20T10:23:32.658Z,17.60
2018-06-20T10:25:36.303Z,16.37
2018-06-20T10:27:39.661Z,17.67
2018-06-20T10:29:42.073Z,16.33
2018-06-20T10:31:44.558Z,16.43
2018-06-20T10:33:47.120Z,15.83
2018-06-20T10:35:49.705Z,16.00
2018-06-20T10:37:55.071Z,16.33
2018-06-20T10:39:58.427Z,18.47
2018-06-20T10:42:01.641Z,17.90
2018-06-20T10:44:10.084Z,19.27
2018-06-20T10:48:25.741Z,16.67
2018-06-20T10:50:29.407Z,14.67
2018-06-20T10:52:32.026Z,16.17
2018-06-20T10:54:34.782Z,22.37
2018-06-20T10:56:43.124Z,15.87
2018-06-20T10:58:51.292Z,17.83
2018-06-20T11:01:01.776Z,17.00
2018-06-20T11:03:09.879Z,18.70
2018-06-20T11:05:18.660Z,15.97
2018-06-20T11:07:27.920Z,17.93
2018-06-20T11:09:35.923Z,16.53
2018-06-20T11:11:44.401Z,17.13
2018-06-20T11:13:48.972Z,20.63
2018-06-20T11:15:51.561Z,17.20
2018-06-20T11:17:54.145Z,17.43
2018-06-20T11:20:01.281Z,17.97
2018-06-20T11:22:05.758Z,15.67
2018-06-20T11:24:10.383Z,18.10
2018-06-20T11:26:14.600Z,17.63
2018-06-20T11:33:29.591Z,15.17
2018-06-20T11:35:33.452Z,17.40
2018-06-20T11:37:40.300Z,19.37
2018-06-20T11:39:43.050Z,20.23
2018-06-20T11:41:57.058Z,20.77
2018-06-20T11:44:06.238Z,17.50
2018-06-20T11:46:14.572Z,16.10
2018-06-20T11:48:18.136Z,18.63
2018-06-20T11:50:23.793Z,26.60
2018-06-20T11:53:34.821Z,17.53
2018-06-20T11:55:38.341Z,18.93
2018-06-20T11:57:42.355Z,21.03
2018-06-20T11:59:50.400Z,19.17
2018-06-20T12:02:00.753Z,17.30
2018-06-20T12:04:09.324Z,19.80
2018-06-20T12:06:17.572Z,22.50
2018-06-20T12:08:27.350Z,17.40
2018-06-20T12:10:38.950Z,16.97
2018-06-20T12:12:47.159Z,16.83
2018-06-20T12:14:55.471Z,18.40
2018-06-20T12:17:02.495Z,19.27
2018-06-20T12:19:10.917Z,17.93
2018-06-20T12:21:19.106Z,17.93
2018-06-20T12:23:27.036Z,16.50
2018-06-20T12:25:35.223Z,17.67
2018-06-20T12:27:43.501Z,14.27
2018-06-20T12:29:52.981Z,15.80
2018-06-20T12:32:02.199Z,15.43
2018-06-20T12:34:12.085Z,13.93
2018-06-20T12:36:23.530Z,13.03
2018-06-20T12:38:36.765Z,17.17
2018-06-20T12:40:47.721Z,16.47
2018-06-20T12:42:56.382Z,15.37
2018-06-20T12:45:08.400Z,15.13
2018-06-20T12:47:17.519Z,13.27
2018-06-20T12:49:25.535Z,13.43
2018-06-20T12:51:29.404Z,14.17
2018-06-20T12:53:34.719Z,15.60
2018-06-20T12:55:37.309Z,18.20
2018-06-20T12:57:42.591Z,20.90
2018-06-20T12:59:49.139Z,20.30
2018-06-20T13:01:59.580Z,18.30
2018-06-20T13:04:03.421Z,16.40
2018-06-20T13:06:07.256Z,16.07
2018-06-20T13:08:12.528Z,18.43
2018-06-20T13:10:15.044Z,17.23
2018-06-20T13:12:20.635Z,18.43
2018-06-20T13:14:23.482Z,18.37
2018-06-20T13:16:28.490Z,12.83
2018-06-20T13:18:33.410Z,14.23
2018-06-20T13:20:41.001Z,15.03
2018-06-20T13:22:49.359Z,14.53
2018-06-20T13:24:51.940Z,12.97
2018-06-20T13:26:56.525Z,14.30
2018-06-20T13:32:14.614Z,14.40
2018-06-20T13:34:23.874Z,14.63
2018-06-20T13:36:32.176Z,14.27
2018-06-20T13:38:42.117Z,12.03
2018-06-20T13:40:50.666Z,13.60
2018-06-20T13:43:02.332Z,12.33
2018-06-20T13:45:10.776Z,10.93
2018-06-20T13:47:21.397Z,11.43
2018-06-20T13:49:27.708Z,12.07
2018-06-20T13:51:30.215Z,11.13
2018-06-20T13:53:33.610Z,8.00
2018-06-20T13:55:39.019Z,7.80
2018-06-20T13:57:45.470Z,7.87
2018-06-20T13:59:48.800Z,9.63
2018-06-20T14:01:53.666Z,9.50
2018-06-20T14:03:56.142Z,9.00
2018-06-20T14:06:00.830Z,7.67
2018-06-20T14:08:07.330Z,8.50
2018-06-20T14:10:14.362Z,7.03
2018-06-20T14:12:19.576Z,9.63
2018-06-20T14:14:27.543Z,6.60
2018-06-20T14:16:33.052Z,6.33
2018-06-20T14:18:38.697Z,6.50
2018-06-20T14:20:49.632Z,8.33
2018-06-20T14:22:54.754Z,6.80
2018-06-20T14:25:00.774Z,6.60
2018-06-20T14:27:06.808Z,7.63
2018-06-20T14:29:14.104Z,7.03
2018-06-20T14:31:22.914Z,6.87
2018-06-20T14:33:31.742Z,6.87
2018-06-20T14:35:39.651Z,7.37
2018-06-20T14:37:47.970Z,6.90
2018-06-20T14:39:56.232Z,6.97
2018-06-20T14:42:05.514Z,7.10
2018-06-20T14:44:11.010Z,6.10
2018-06-20T14:46:15.520Z,5.87
2018-06-20T14:48:19.744Z,7.00
2018-06-20T14:50:23.162Z,7.17
2018-06-20T14:52:28.824Z,8.37
2018-06-20T14:54:31.210Z,6.97
2018-06-20T14:56:35.196Z,8.00
2018-06-20T14:58:38.036Z,6.10
2018-06-20T15:00:40.434Z,7.57
2018-06-20T15:02:43.061Z,8.43
2018-06-20T15:04:50.493Z,7.63
2018-06-20T15:06:55.114Z,7.10
2018-06-20T15:08:59.100Z,6.90
2018-06-20T15:11:01.509Z,6.90
2018-06-20T15:13:06.696Z,6.50
2018-06-20T15:15:09.570Z,8.13
2018-06-20T15:17:17.735Z,6.57
2018-06-20T15:19:20.221Z,6.67
2018-06-20T15:21:25.902Z,6.33
2018-06-20T15:23:31.103Z,7.27
2018-06-20T15:25:34.541Z,6.60
2018-06-20T15:27:42.920Z,5.97
2018-06-20T15:29:51.073Z,6.63
2018-06-20T15:31:59.017Z,7.10
2018-06-20T15:34:07.003Z,7.53
2018-06-20T15:36:15.288Z,7.07
2018-06-20T15:38:27.257Z,6.87
2018-06-20T15:40:30.178Z,7.07
2018-06-20T15:42:32.647Z,7.30
2018-06-20T15:44:36.891Z,7.40
2018-06-20T15:46:41.662Z,7.07
2018-06-20T15:48:44.986Z,7.50
2018-06-20T15:50:48.182Z,7.80
2018-06-20T15:52:52.289Z,6.93
2018-06-20T15:54:56.959Z,7.10
2018-06-20T15:56:59.551Z,7.83
2018-06-20T15:59:03.123Z,7.50
2018-06-20T16:01:07.566Z,8.20
2018-06-20T16:03:20.539Z,8.53
2018-06-20T16:05:23.398Z,9.30
2018-06-20T16:07:27.471Z,8.00
2018-06-20T16:09:35.711Z,6.73
2018-06-20T16:11:39.175Z,7.00
2018-06-20T16:13:41.606Z,7.60
2018-06-20T16:15:44.969Z,6.40
2018-06-20T16:17:47.673Z,7.30
2018-06-20T16:19:55.679Z,9.10
2018-06-20T16:22:03.655Z,7.23
2018-06-20T16:24:11.683Z,7.50
2018-06-20T16:26:22.419Z,7.93
2018-06-20T16:28:30.644Z,7.97
2018-06-20T16:30:35.961Z,9.00
2018-06-20T16:32:39.538Z,7.80
2018-06-20T16:34:43.320Z,7.97
2018-06-20T16:36:48.454Z,7.47
2018-06-20T16:38:51.364Z,6.63
2018-06-20T16:40:55.908Z,7.40
2018-06-20T16:42:59.075Z,6.33
2018-06-20T16:45:01.445Z,7.07
2018-06-20T16:47:04.117Z,6.77
2018-06-20T16:49:07.651Z,6.50
2018-06-20T16:51:10.632Z,6.50
2018-06-20T16:53:13.301Z,6.60
2018-06-20T16:55:17.422Z,5.83
2018-06-20T16:57:21.450Z,5.80
2018-06-20T16:59:23.913Z,6.20
2018-06-20T17:01:32.467Z,6.20
2018-06-20T17:03:34.854Z,6.03
2018-06-20T17:05:38.756Z,6.07
2018-06-20T17:07:43.780Z,7.00
2018-06-20T17:09:47.120Z,5.70
2018-06-20T17:11:55.135Z,6.30
2018-06-20T17:14:03.925Z,6.90
2018-06-20T17:16:12.411Z,6.00
2018-06-20T17:18:20.371Z,5.83
2018-06-20T17:20:28.522Z,6.60
2018-06-20T17:22:36.768Z,5.83
2018-06-20T17:24:46.410Z,6.17
2018-06-20T17:26:49.091Z,6.30
2018-06-20T17:28:52.442Z,5.90
2018-06-20T17:30:55.463Z,6.10
2018-06-20T17:32:58.533Z,5.70
2018-06-20T17:35:00.926Z,5.97
2018-06-20T17:37:03.613Z,6.27
2018-06-20T17:39:09.753Z,6.13
2018-06-20T17:41:12.808Z,6.30
2018-06-20T17:43:15.542Z,6.30
2018-06-20T17:45:18.022Z,6.50
2018-06-20T17:47:21.927Z,6.17
2018-06-20T17:49:26.200Z,6.47
2018-06-20T17:51:28.605Z,5.90
2018-06-20T17:53:31.474Z,5.63
2018-06-20T17:55:34.043Z,6.10
2018-06-20T17:57:36.574Z,5.67
2018-06-20T17:59:43.218Z,5.80
2018-06-20T18:01:47.902Z,5.90
2018-06-20T18:03:50.707Z,6.00
2018-06-20T18:05:58.759Z,6.20
2018-06-20T18:08:09.589Z,6.07
2018-06-20T18:10:17.713Z,6.20
2018-06-20T18:12:26.905Z,6.93
2018-06-20T18:14:34.842Z,6.50
2018-06-20T18:16:42.851Z,6.30
2018-06-20T18:18:45.803Z,6.03
2018-06-20T18:20:48.276Z,5.83
2018-06-20T18:22:51.050Z,6.60
2018-06-20T18:24:59.060Z,6.40
2018-06-20T18:27:04.592Z,5.57
2018-06-20T18:29:07.255Z,9.30
2018-06-20T18:31:11.538Z,9.80
2018-06-20T18:33:14.136Z,14.33
2018-06-20T18:35:17.103Z,23.73
2018-06-20T18:37:19.928Z,24.00
2018-06-20T18:39:22.309Z,18.10
2018-06-20T18:41:24.763Z,17.27
2018-06-20T18:43:30.320Z,20.10
2018-06-20T18:45:32.776Z,17.07
2018-06-20T18:47:41.048Z,19.50
2018-06-20T18:49:43.650Z,18.37
2018-06-20T18:51:46.272Z,20.00
2018-06-20T18:53:49.087Z,19.53
2018-06-20T18:55:55.330Z,20.23
2018-06-20T18:58:03.558Z,19.53
2018-06-20T19:00:13.283Z,25.57
2018-06-20T19:02:21.539Z,22.47
2018-06-20T19:04:29.718Z,25.10
2018-06-20T19:06:37.967Z,29.47
2018-06-20T19:08:48.058Z,31.57
2018-06-20T19:10:51.494Z,27.07
2018-06-20T19:12:55.813Z,28.77
2018-06-20T19:15:01.991Z,29.90
2018-06-20T19:17:04.453Z,33.37
2018-06-20T19:19:07.070Z,36.23
2018-06-20T19:21:09.622Z,33.00
2018-06-20T19:23:12.578Z,31.37
2018-06-20T19:25:15.103Z,33.90
2018-06-20T19:27:20.267Z,30.73
2018-06-20T19:29:23.068Z,32.37
2018-06-20T19:31:25.714Z,31.40
2018-06-20T19:33:32.235Z,29.37
2018-06-20T19:35:35.250Z,33.23
2018-06-20T19:37:40.315Z,38.33
2018-06-20T19:39:48.999Z,29.50
2018-06-20T19:41:52.203Z,30.03
2018-06-20T19:44:00.706Z,30.90
2018-06-20T19:46:02.996Z,30.23
2018-06-20T19:48:05.217Z,27.93
2018-06-20T19:50:07.409Z,25.90
2018-06-20T19:52:09.715Z,31.30
2018-06-20T19:54:11.990Z,31.33
2018-06-20T19:56:14.243Z,30.47
2018-06-20T19:58:16.606Z,30.60
2018-06-20T20:00:18.768Z,35.90
2018-06-20T20:02:21.061Z,30.30
2018-06-20T20:04:23.646Z,35.63
2018-06-20T20:06:26.058Z,49.97
2018-06-20T20:08:28.337Z,31.87
2018-06-20T20:10:30.663Z,36.23
2018-06-20T20:12:33.295Z,30.40
2018-06-20T20:14:35.607Z,31.50
2018-06-20T20:16:38.200Z,33.80
2018-06-20T20:18:40.363Z,32.87
2018-06-20T20:20:42.642Z,34.23
2018-06-20T20:22:44.809Z,38.50
2018-06-20T20:24:47.015Z,32.70
2018-06-20T20:26:49.183Z,35.47
2018-06-20T20:28:51.423Z,37.70
2018-06-20T20:30:53.570Z,28.80
2018-06-20T20:32:55.762Z,28.13
2018-06-20T20:34:58.098Z,30.67
2018-06-20T20:37:00.424Z,31.57
2018-06-20T20:39:03.346Z,32.30
2018-06-20T20:41:05.604Z,31.60
2018-06-20T20:43:07.786Z,28.73
2018-06-20T20:45:09.962Z,33.77
2018-06-20T20:47:12.178Z,31.47
2018-06-20T20:49:14.403Z,28.70
2018-06-20T20:51:16.582Z,34.30
2018-06-20T20:53:18.757Z,32.17
2018-06-20T20:55:20.981Z,29.03
2018-06-20T20:57:23.143Z,31.40
2018-06-20T20:59:25.537Z,26.17
2018-06-20T21:03:36.742Z,25.33
2018-06-20T21:05:39.108Z,28.43
2018-06-20T21:07:41.286Z,30.83
2018-06-20T21:09:43.406Z,24.70
2018-06-20T21:11:45.557Z,31.97
2018-06-20T21:13:47.733Z,25.00
2018-06-20T21:15:50.002Z,25.87
2018-06-20T21:17:52.534Z,23.37
2018-06-20T21:19:54.672Z,54.93
2018-06-20T21:21:56.826Z,73.67
2018-06-20T21:23:59.189Z,84.23
2018-06-20T21:26:01.382Z,36.33
2018-06-20T21:28:03.610Z,37.07
2018-06-20T21:30:05.830Z,125.60
2018-06-20T21:32:08.037Z,27.70
2018-06-20T21:34:10.208Z,34.87
2018-06-20T21:36:12.434Z,30.97
2018-06-20T21:38:14.582Z,27.93
2018-06-20T21:40:16.718Z,24.67
2018-06-20T21:42:18.886Z,26.83
2018-06-20T21:44:21.021Z,34.40
2018-06-20T21:46:23.228Z,25.37
2018-06-20T21:48:25.380Z,62.00
2018-06-20T21:50:27.613Z,26.73
2018-06-20T21:52:29.835Z,32.17
2018-06-20T21:54:32.258Z,27.60
2018-06-20T21:56:34.398Z,33.03
2018-06-20T21:58:36.538Z,29.47
2018-06-20T22:00:38.645Z,28.67
2018-06-20T22:02:40.773Z,35.53
2018-06-20T22:04:42.853Z,27.83
2018-06-20T22:06:44.935Z,28.17
2018-06-20T22:08:47.015Z,32.27
2018-06-20T22:10:49.085Z,27.90
2018-06-20T22:12:51.154Z,44.73
2018-06-20T22:14:53.268Z,29.17
2018-06-20T22:16:55.329Z,32.07
2018-06-20T22:18:57.409Z,28.50
2018-06-20T22:20:59.485Z,32.60
2018-06-20T22:23:01.551Z,30.70
2018-06-20T22:25:03.754Z,27.10
2018-06-20T22:27:05.841Z,35.63
2018-06-20T22:29:08.011Z,29.93
2018-06-20T22:31:10.082Z,37.20
2018-06-20T22:33:12.198Z,34.93
2018-06-20T22:35:14.289Z,35.37
2018-06-20T22:37:16.354Z,39.50
2018-06-20T22:39:18.731Z,28.50
2018-06-20T22:41:20.824Z,34.13
2018-06-20T22:43:27.511Z,38.07
2018-06-20T22:45:29.724Z,35.93
2018-06-20T22:47:32.117Z,35.27
2018-06-20T22:49:34.198Z,32.40
2018-06-20T22:51:36.453Z,42.10
2018-06-20T22:53:38.509Z,34.10
2018-06-20T22:55:40.605Z,31.50
2018-06-20T22:57:42.878Z,31.47
2018-06-20T22:59:44.936Z,32.07
2018-06-20T23:01:47.010Z,34.90
2018-06-20T23:03:49.087Z,41.23
2018-06-20T23:05:51.150Z,37.73
2018-06-20T23:07:53.273Z,40.60
2018-06-20T23:09:55.380Z,34.00
2018-06-20T23:11:57.454Z,35.03
2018-06-20T23:13:59.513Z,39.30
2018-06-20T23:16:01.861Z,39.50
2018-06-20T23:18:04.086Z,38.27
2018-06-20T23:20:06.181Z,31.93
2018-06-20T23:22:08.248Z,33.53
2018-06-20T23:24:10.359Z,40.23
2018-06-20T23:26:12.438Z,39.90
2018-06-20T23:28:14.497Z,32.03
2018-06-20T23:30:16.574Z,41.57
2018-06-20T23:32:19.178Z,37.77
2018-06-20T23:34:21.238Z,34.33
2018-06-20T23:36:23.829Z,37.33
2018-06-20T23:38:25.921Z,36.30
2018-06-20T23:40:28.185Z,37.10
2018-06-20T23:42:30.353Z,35.63
2018-06-20T23:44:32.440Z,33.30
2018-06-20T23:46:34.650Z,40.93
2018-06-20T23:48:36.729Z,36.60
2018-06-20T23:50:38.801Z,35.80
2018-06-20T23:52:40.921Z,41.43
2018-06-20T23:54:43.005Z,36.53
2018-06-20T23:56:45.070Z,36.17
2018-06-20T23:58:47.134Z,33.23
